createdAt,value
2022-09-16T00:00:16.320Z,10.35
2022-09-16T00:02:51.228Z,11.07
2022-09-16T00:05:20.677Z,7.18
2022-09-16T00:07:53.071Z,9.80
2022-09-16T00:10:22.665Z,13.50
2022-09-16T00:13:18.612Z,9.50
2022-09-16T00:15:51.441Z,8.10
2022-09-16T00:18:21.723Z,10.77
2022-09-16T00:20:51.387Z,12.00
2022-09-16T00:23:49.468Z,11.38
2022-09-16T00:26:18.228Z,9.48
2022-09-16T00:28:51.711Z,20.67
2022-09-16T00:31:20.801Z,8.80
2022-09-16T00:33:51.149Z,8.85
2022-09-16T00:38:55.339Z,15.18
2022-09-16T00:41:33.233Z,13.05
2022-09-16T00:44:06.816Z,10.90
2022-09-16T00:46:48.868Z,10.55
2022-09-16T00:49:27.325Z,7.82
2022-09-16T00:52:04.988Z,8.13
2022-09-16T00:55:27.618Z,6.82
2022-09-16T00:58:04.241Z,9.73
2022-09-16T01:00:32.240Z,9.77
2022-09-16T01:03:29.537Z,7.38
2022-09-16T01:05:57.668Z,9.13
2022-09-16T01:08:32.937Z,8.85
2022-09-16T01:11:06.855Z,11.95
2022-09-16T01:13:38.143Z,9.45
2022-09-16T01:16:36.878Z,7.78
2022-09-16T01:19:30.389Z,6.38
2022-09-16T01:22:25.334Z,14.68
2022-09-16T01:25:30.489Z,13.10
2022-09-16T01:28:27.238Z,13.63
2022-09-16T01:31:00.442Z,11.85
2022-09-16T01:33:50.066Z,12.35
2022-09-16T01:36:29.258Z,8.30
2022-09-16T01:39:28.478Z,11.05
2022-09-16T01:42:41.252Z,13.40
2022-09-16T01:45:21.170Z,11.43
2022-09-16T01:47:54.261Z,10.00
2022-09-16T01:51:07.644Z,10.40
2022-09-16T01:54:11.341Z,12.48
2022-09-16T01:56:46.440Z,12.65
2022-09-16T01:59:38.273Z,15.88
2022-09-16T02:02:11.478Z,8.97
2022-09-16T02:10:44.289Z,9.80
2022-09-16T02:13:52.659Z,10.68
2022-09-16T02:16:31.656Z,14.55
2022-09-16T02:19:04.664Z,7.00
2022-09-16T02:21:45.489Z,6.53
2022-09-16T02:24:20.334Z,10.18
2022-09-16T02:26:54.363Z,11.90
2022-09-16T02:29:36.392Z,10.13
2022-09-16T02:32:09.326Z,12.15
2022-09-16T02:34:51.554Z,9.80
2022-09-16T02:37:38.444Z,11.68
2022-09-16T02:40:23.776Z,8.60
2022-09-16T02:42:51.509Z,16.63
2022-09-16T02:45:29.139Z,9.13
2022-09-16T02:55:06.185Z,10.23
2022-09-16T02:58:26.493Z,7.38
2022-09-16T03:00:57.885Z,10.85
2022-09-16T03:03:26.379Z,9.10
2022-09-16T03:06:10.157Z,8.90
2022-09-16T03:08:43.664Z,9.80
2022-09-16T03:11:30.109Z,10.15
2022-09-16T03:14:09.522Z,12.98
2022-09-16T03:17:21.836Z,12.43
2022-09-16T03:20:34.820Z,8.18
2022-09-16T03:23:36.875Z,8.55
2022-09-16T03:26:03.838Z,6.28
2022-09-16T03:28:41.541Z,10.10
2022-09-16T03:31:37.582Z,10.23
2022-09-16T03:34:34.721Z,12.43
2022-09-16T03:37:08.994Z,16.83
2022-09-16T03:39:37.689Z,14.38
2022-09-16T03:42:10.550Z,10.70
2022-09-16T03:44:40.429Z,16.77
2022-09-16T03:47:08.436Z,11.10
2022-09-16T03:49:36.440Z,13.02
2022-09-16T03:52:08.999Z,7.72
2022-09-16T03:54:39.186Z,9.30
2022-09-16T03:57:06.169Z,11.70
2022-09-16T03:59:33.153Z,17.50
2022-09-16T04:01:59.907Z,10.50
2022-09-16T04:04:30.080Z,10.70
2022-09-16T04:07:03.259Z,9.70
2022-09-16T04:09:33.106Z,13.02
2022-09-16T04:12:03.393Z,9.93
2022-09-16T04:14:30.062Z,8.93
2022-09-16T04:20:04.647Z,7.03
2022-09-16T04:22:32.410Z,18.67
2022-09-16T04:25:27.836Z,11.73
2022-09-16T04:27:56.490Z,14.38
2022-09-16T04:30:27.122Z,12.60
2022-09-16T04:32:54.937Z,14.20
2022-09-16T04:35:31.581Z,17.92
2022-09-16T04:38:04.553Z,12.02
2022-09-16T04:40:31.192Z,18.30
2022-09-16T04:43:00.601Z,11.23
2022-09-16T04:45:31.060Z,11.48
2022-09-16T04:47:58.196Z,11.75
2022-09-16T04:50:25.669Z,14.80
2022-09-16T04:52:55.566Z,10.50
2022-09-16T04:55:23.429Z,11.25
2022-09-16T04:57:56.550Z,11.52
2022-09-16T05:00:26.377Z,16.40
2022-09-16T05:02:55.500Z,9.70
2022-09-16T05:05:23.175Z,11.95
2022-09-16T05:07:49.869Z,10.32
2022-09-16T05:10:18.752Z,9.50
2022-09-16T05:12:53.602Z,12.40
2022-09-16T05:15:26.570Z,18.00
2022-09-16T05:17:57.251Z,9.43
2022-09-16T05:20:30.169Z,9.48
2022-09-16T05:23:00.189Z,12.80
2022-09-16T05:25:28.332Z,8.57
2022-09-16T05:27:55.293Z,10.63
2022-09-16T05:30:26.147Z,10.05
2022-09-16T05:33:21.870Z,8.95
2022-09-16T05:35:52.865Z,9.80
2022-09-16T05:38:23.202Z,8.25
2022-09-16T05:40:49.913Z,5.75
2022-09-16T05:43:16.549Z,14.13
2022-09-16T05:45:55.102Z,9.18
2022-09-16T05:51:29.024Z,7.10
2022-09-16T05:53:58.715Z,11.75
2022-09-16T05:56:30.781Z,6.95
2022-09-16T05:59:00.524Z,7.80
2022-09-16T06:01:42.441Z,10.48
2022-09-16T06:04:37.653Z,9.87
2022-09-16T06:07:11.860Z,9.57
2022-09-16T06:09:43.185Z,8.98
2022-09-16T06:12:12.550Z,8.55
2022-09-16T06:14:43.207Z,9.65
2022-09-16T06:17:10.088Z,7.45
2022-09-16T06:19:37.725Z,10.38
2022-09-16T06:22:06.306Z,12.20
2022-09-16T06:24:35.012Z,7.95
2022-09-16T06:27:02.680Z,7.82
2022-09-16T06:29:29.549Z,7.28
2022-09-16T06:31:59.266Z,13.15
2022-09-16T06:34:26.735Z,4.85
2022-09-16T06:36:55.730Z,7.75
2022-09-16T06:39:25.360Z,12.48
2022-09-16T06:41:52.356Z,9.73
2022-09-16T06:44:24.320Z,6.75
2022-09-16T06:46:52.297Z,7.68
2022-09-16T06:49:20.704Z,8.68
2022-09-16T06:51:47.507Z,10.57
2022-09-16T06:54:14.177Z,8.98
2022-09-16T06:56:44.337Z,10.18
2022-09-16T06:59:13.594Z,9.77
2022-09-16T07:01:46.954Z,7.63
2022-09-16T07:04:14.370Z,7.60
2022-09-16T07:09:41.143Z,6.65
2022-09-16T07:14:41.092Z,12.93
2022-09-16T07:17:15.582Z,8.85
2022-09-16T07:19:42.218Z,8.80
2022-09-16T07:22:12.278Z,7.57
2022-09-16T07:24:42.350Z,9.07
2022-09-16T07:27:09.799Z,6.68
2022-09-16T07:29:39.774Z,10.80
2022-09-16T07:32:06.533Z,7.07
2022-09-16T07:34:44.194Z,9.45
2022-09-16T07:37:17.718Z,9.70
2022-09-16T07:39:54.419Z,9.20
2022-09-16T07:42:28.074Z,7.30
2022-09-16T07:54:06.846Z,9.15
2022-09-16T07:56:37.136Z,13.35
2022-09-16T07:59:13.072Z,8.13
2022-09-16T08:01:43.659Z,9.48
2022-09-16T08:04:13.942Z,6.75
2022-09-16T08:06:42.737Z,10.77
2022-09-16T08:09:36.804Z,10.30
2022-09-16T08:12:01.834Z,7.03
2022-09-16T08:14:30.846Z,10.00
2022-09-16T08:16:58.158Z,12.82
2022-09-16T08:19:26.995Z,9.10
2022-09-16T08:21:56.978Z,6.85
2022-09-16T08:24:23.744Z,6.00
2022-09-16T08:26:50.402Z,9.07
2022-09-16T08:29:18.426Z,6.72
2022-09-16T08:31:46.108Z,9.07
2022-09-16T08:34:29.861Z,8.98
2022-09-16T08:36:57.114Z,11.07
2022-09-16T08:39:23.887Z,7.30
2022-09-16T08:42:08.571Z,8.95
2022-09-16T08:44:49.944Z,7.85
2022-09-16T08:47:41.921Z,8.57
2022-09-16T08:50:25.374Z,8.30
2022-09-16T08:52:57.146Z,6.07
2022-09-16T08:55:36.939Z,7.90
2022-09-16T08:58:18.957Z,8.32
2022-09-16T09:00:54.449Z,9.43
2022-09-16T09:03:37.296Z,5.57
2022-09-16T09:08:59.044Z,7.68
2022-09-16T09:11:58.448Z,14.40
2022-09-16T09:14:55.654Z,21.67
2022-09-16T09:17:48.207Z,10.57
2022-09-16T09:20:39.740Z,8.18
2022-09-16T09:23:40.450Z,8.82
2022-09-16T09:26:16.114Z,10.65
2022-09-16T09:29:12.603Z,7.60
2022-09-16T09:34:49.983Z,9.45
2022-09-16T09:37:40.786Z,8.60
2022-09-16T09:40:46.976Z,5.88
2022-09-16T09:43:47.104Z,6.07
2022-09-16T09:46:32.998Z,9.60
2022-09-16T09:49:18.861Z,8.82
2022-09-16T09:51:59.394Z,8.30
2022-09-16T09:54:33.206Z,11.93
2022-09-16T09:57:11.152Z,11.13
2022-09-16T09:59:47.793Z,9.93
2022-09-16T10:02:19.417Z,11.23
2022-09-16T10:04:47.334Z,8.48
2022-09-16T10:07:20.828Z,8.55
2022-09-16T10:10:04.402Z,6.95
2022-09-16T10:12:35.859Z,7.45
2022-09-16T10:15:04.334Z,7.15
2022-09-16T10:17:33.108Z,7.82
2022-09-16T10:20:06.675Z,10.60
2022-09-16T10:22:40.153Z,8.65
2022-09-16T10:25:23.762Z,9.60
2022-09-16T10:28:00.123Z,7.75
2022-09-16T10:30:42.571Z,10.68
2022-09-16T10:33:20.364Z,5.03
2022-09-16T10:42:22.558Z,10.60
2022-09-16T10:44:54.338Z,7.40
2022-09-16T10:47:32.872Z,4.77
2022-09-16T10:50:04.079Z,8.35
2022-09-16T10:52:56.691Z,7.55
2022-09-16T10:55:38.242Z,6.60
2022-09-16T10:58:26.853Z,6.53
2022-09-16T11:01:29.211Z,12.13
2022-09-16T11:04:14.613Z,9.18
2022-09-16T11:09:46.856Z,7.57
2022-09-16T11:12:50.617Z,7.95
2022-09-16T11:15:38.176Z,8.82
2022-09-16T11:18:14.548Z,6.88
2022-09-16T11:20:52.854Z,7.75
2022-09-16T11:23:23.046Z,9.77
2022-09-16T11:26:19.321Z,8.23
2022-09-16T11:29:15.883Z,6.80
2022-09-16T11:35:03.077Z,6.55
2022-09-16T11:41:02.830Z,5.07
2022-09-16T11:50:21.855Z,5.03
2022-09-16T11:53:24.622Z,5.75
2022-09-16T11:56:11.902Z,7.78
2022-09-16T11:58:44.772Z,8.75
2022-09-16T12:01:44.923Z,3.92
2022-09-16T12:04:22.826Z,6.28
2022-09-16T12:07:19.396Z,6.07
2022-09-16T12:10:24.654Z,8.35
2022-09-16T12:13:03.207Z,8.38
2022-09-16T12:15:44.271Z,8.00
2022-09-16T12:18:50.902Z,8.18
2022-09-16T12:21:39.457Z,7.78
2022-09-16T12:24:18.606Z,4.05
2022-09-16T12:26:58.982Z,6.63
2022-09-16T12:29:49.010Z,8.65
2022-09-16T12:32:42.709Z,7.03
2022-09-16T12:44:37.685Z,5.97
2022-09-16T12:47:36.173Z,3.78
2022-09-16T12:50:24.755Z,3.60
2022-09-16T12:53:36.393Z,5.70
2022-09-16T12:56:49.182Z,4.35
2022-09-16T12:59:33.277Z,7.22
2022-09-16T13:02:11.865Z,6.55
2022-09-16T13:04:47.763Z,3.55
2022-09-16T13:08:01.946Z,8.70
2022-09-16T13:11:00.805Z,3.75
2022-09-16T13:13:34.312Z,6.05
2022-09-16T13:16:29.059Z,2.60
2022-09-16T13:19:21.322Z,4.05
2022-09-16T13:22:12.689Z,6.53
2022-09-16T13:24:53.924Z,5.05
2022-09-16T13:27:36.359Z,5.93
2022-09-16T13:30:11.304Z,7.05
2022-09-16T13:32:42.772Z,3.33
2022-09-16T13:35:18.644Z,8.98
2022-09-16T13:37:56.964Z,8.35
2022-09-16T13:40:28.976Z,9.00
2022-09-16T13:43:16.055Z,6.97
2022-09-16T13:45:44.461Z,6.10
2022-09-16T13:48:24.289Z,5.85
2022-09-16T13:50:56.667Z,3.05
2022-09-16T13:53:37.404Z,5.50
2022-09-16T13:56:13.214Z,6.63
2022-09-16T13:59:10.477Z,7.10
2022-09-16T14:01:58.712Z,3.22
2022-09-16T14:04:53.609Z,7.75
2022-09-16T14:07:53.918Z,5.13
2022-09-16T14:10:33.199Z,5.43
2022-09-16T14:13:11.695Z,4.32
2022-09-16T14:15:52.540Z,3.03
2022-09-16T14:18:30.406Z,5.60
2022-09-16T14:21:02.017Z,4.68
2022-09-16T14:23:31.845Z,4.60
2022-09-16T14:26:14.212Z,4.90
2022-09-16T14:28:49.620Z,11.65
2022-09-16T14:31:30.518Z,8.23
2022-09-16T14:34:03.684Z,7.18
2022-09-16T14:36:40.773Z,3.58
2022-09-16T14:39:07.585Z,5.07
2022-09-16T14:42:04.534Z,6.50
2022-09-16T14:44:38.470Z,5.95
2022-09-16T14:47:50.654Z,2.53
2022-09-16T14:50:23.572Z,5.43
2022-09-16T14:56:00.204Z,3.72
2022-09-16T14:58:31.535Z,5.72
2022-09-16T15:01:09.023Z,4.85
2022-09-16T15:03:49.570Z,3.67
2022-09-16T15:06:22.140Z,3.28
2022-09-16T15:09:04.181Z,4.68
2022-09-16T15:11:48.027Z,6.35
2022-09-16T15:14:19.642Z,5.05
2022-09-16T15:17:00.582Z,6.13
2022-09-16T15:19:34.693Z,3.88
2022-09-16T15:22:08.705Z,7.53
2022-09-16T15:24:42.383Z,4.80
2022-09-16T15:27:09.362Z,4.40
2022-09-16T15:29:52.520Z,6.93
2022-09-16T15:32:26.658Z,5.00
2022-09-16T15:35:16.167Z,2.65
2022-09-16T15:37:43.237Z,3.70
2022-09-16T15:40:25.498Z,5.30
2022-09-16T15:43:16.306Z,5.80
2022-09-16T15:45:56.370Z,4.20
2022-09-16T15:48:28.522Z,5.13
2022-09-16T15:51:05.606Z,7.55
2022-09-16T15:53:32.176Z,2.90
2022-09-16T15:56:22.735Z,2.60
2022-09-16T15:58:58.731Z,5.95
2022-09-16T16:01:52.423Z,3.00
2022-09-16T16:04:30.169Z,3.45
2022-09-16T16:07:01.689Z,2.15
2022-09-16T16:09:36.157Z,2.15
2022-09-16T16:12:09.586Z,6.05
2022-09-16T16:14:37.647Z,2.35
2022-09-16T16:17:17.329Z,2.67
2022-09-16T16:19:50.121Z,3.38
2022-09-16T16:22:19.983Z,1.63
2022-09-16T16:24:46.898Z,4.22
2022-09-16T16:27:15.684Z,2.88
2022-09-16T16:29:44.496Z,3.05
2022-09-16T16:32:15.755Z,2.53
2022-09-16T16:34:52.645Z,3.67
2022-09-16T16:37:40.651Z,7.22
2022-09-16T16:40:09.438Z,5.47
2022-09-16T16:42:36.151Z,4.80
2022-09-16T16:45:05.592Z,4.47
2022-09-16T16:47:32.252Z,9.02
2022-09-16T16:50:15.686Z,6.55
2022-09-16T16:55:46.835Z,3.00
2022-09-16T16:59:06.969Z,7.18
2022-09-16T17:01:34.925Z,2.80
2022-09-16T17:04:05.219Z,6.78
2022-09-16T17:06:36.102Z,8.27
2022-09-16T17:09:04.313Z,5.03
2022-09-16T17:11:35.264Z,1.45
2022-09-16T17:14:07.676Z,1.20
2022-09-16T17:16:36.524Z,4.30
2022-09-16T17:19:03.504Z,4.18
2022-09-16T17:21:35.711Z,6.20
2022-09-16T17:24:02.337Z,3.78
2022-09-16T17:26:31.648Z,10.90
2022-09-16T17:28:58.821Z,3.47
2022-09-16T17:31:33.758Z,3.78
2022-09-16T17:34:04.757Z,2.85
2022-09-16T17:36:42.449Z,1.33
2022-09-16T17:39:18.235Z,3.78
2022-09-16T17:41:47.844Z,6.35
2022-09-16T17:44:18.518Z,0.70
2022-09-16T17:46:48.702Z,2.67
2022-09-16T17:49:23.598Z,3.53
2022-09-16T17:51:51.693Z,7.60
2022-09-16T17:54:21.443Z,1.95
2022-09-16T17:56:48.382Z,0.93
2022-09-16T17:59:20.318Z,4.63
2022-09-16T18:01:48.327Z,0.70
2022-09-16T18:04:14.925Z,3.42
2022-09-16T18:06:44.146Z,4.25
2022-09-16T18:09:12.406Z,0.80
2022-09-16T18:11:40.124Z,5.20
2022-09-16T18:14:09.974Z,1.23
2022-09-16T18:16:44.865Z,1.00
2022-09-16T18:19:11.558Z,0.85
2022-09-16T18:21:43.310Z,1.05
2022-09-16T18:24:12.356Z,1.17
2022-09-16T18:26:45.092Z,1.83
2022-09-16T18:29:13.086Z,4.38
2022-09-16T18:31:48.793Z,1.98
2022-09-16T18:34:17.060Z,2.83
2022-09-16T18:36:44.315Z,1.02
2022-09-16T18:39:13.970Z,1.83
2022-09-16T18:41:42.532Z,2.20
2022-09-16T18:44:31.901Z,3.05
2022-09-16T18:49:33.235Z,3.70
2022-09-16T18:52:01.155Z,7.18
2022-09-16T18:54:33.433Z,15.85
2022-09-16T18:57:01.334Z,2.85
2022-09-16T18:59:30.960Z,0.90
2022-09-16T19:02:00.956Z,0.60
2022-09-16T19:04:30.915Z,1.35
2022-09-16T19:07:06.649Z,2.35
2022-09-16T19:09:39.909Z,1.48
2022-09-16T19:12:12.374Z,1.23
2022-09-16T19:17:11.172Z,0.65
2022-09-16T19:19:38.092Z,1.33
2022-09-16T19:22:05.256Z,0.52
2022-09-16T19:24:34.639Z,1.52
2022-09-16T19:27:05.048Z,0.30
2022-09-16T19:29:32.740Z,4.47
2022-09-16T19:31:59.871Z,0.85
2022-09-16T19:34:29.704Z,2.83
2022-09-16T19:36:56.386Z,1.25
2022-09-16T19:39:26.378Z,6.25
2022-09-16T19:41:53.248Z,1.02
2022-09-16T19:44:19.971Z,3.10
2022-09-16T19:46:48.367Z,2.22
2022-09-16T19:49:22.166Z,1.25
2022-09-16T19:54:46.870Z,1.27
2022-09-16T19:57:14.185Z,1.33
2022-09-16T19:59:44.975Z,0.75
2022-09-16T20:02:16.154Z,1.27
2022-09-16T20:04:46.034Z,1.27
2022-09-16T20:07:16.268Z,2.95
2022-09-16T20:09:45.521Z,2.25
2022-09-16T20:12:19.086Z,1.48
2022-09-16T20:14:45.712Z,2.00
2022-09-16T20:17:17.024Z,1.23
2022-09-16T20:19:44.645Z,2.55
2022-09-16T20:22:11.258Z,0.80
2022-09-16T20:24:37.837Z,0.80
2022-09-16T20:27:04.511Z,1.98
2022-09-16T20:29:31.262Z,2.60
2022-09-16T20:31:58.212Z,2.67
2022-09-16T20:34:27.098Z,1.92
2022-09-16T20:36:54.236Z,3.97
2022-09-16T20:39:33.016Z,1.83
2022-09-16T20:41:59.593Z,2.47
2022-09-16T20:44:28.017Z,1.55
2022-09-16T20:46:58.272Z,1.83
2022-09-16T20:49:25.106Z,3.38
2022-09-16T20:51:51.754Z,5.13
2022-09-16T20:54:20.804Z,0.95
2022-09-16T20:56:55.698Z,4.00
2022-09-16T20:59:22.326Z,5.00
2022-09-16T21:01:51.270Z,3.67
2022-09-16T21:04:20.572Z,1.15
2022-09-16T21:06:48.044Z,2.55
2022-09-16T21:09:15.735Z,5.55
2022-09-16T21:11:44.023Z,2.70
2022-09-16T21:14:13.830Z,2.47
2022-09-16T21:16:41.359Z,3.08
2022-09-16T21:19:09.992Z,1.42
2022-09-16T21:21:43.316Z,0.82
2022-09-16T21:24:10.438Z,1.63
2022-09-16T21:26:38.407Z,1.77
2022-09-16T21:29:15.158Z,1.73
2022-09-16T21:31:44.618Z,3.65
2022-09-16T21:34:23.032Z,2.10
2022-09-16T21:36:52.649Z,2.08
2022-09-16T21:39:20.151Z,1.40
2022-09-16T21:41:49.104Z,3.25
2022-09-16T21:44:16.771Z,1.65
2022-09-16T21:46:45.646Z,2.55
2022-09-16T21:49:22.100Z,2.38
2022-09-16T21:51:49.229Z,3.75
2022-09-16T21:54:20.431Z,4.03
2022-09-16T21:56:49.340Z,2.28
2022-09-16T21:59:18.800Z,1.58
2022-09-16T22:04:24.832Z,4.53
2022-09-16T22:06:55.751Z,1.73
2022-09-16T22:21:35.188Z,1.92
2022-09-16T22:24:02.343Z,1.15
2022-09-16T22:26:30.308Z,2.63
2022-09-16T22:29:05.397Z,1.23
2022-09-16T22:31:33.175Z,1.23
2022-09-16T22:34:01.070Z,1.75
2022-09-16T22:36:32.321Z,2.20
2022-09-16T22:39:05.520Z,3.00
2022-09-16T22:41:34.584Z,1.75
2022-09-16T22:44:01.854Z,3.30
2022-09-16T22:46:47.540Z,9.32
2022-09-16T22:49:15.191Z,2.20
2022-09-16T22:51:42.234Z,1.67
2022-09-16T22:54:13.229Z,1.73
2022-09-16T22:56:41.176Z,1.83
2022-09-16T22:59:23.917Z,2.83
2022-09-16T23:01:53.750Z,1.48
2022-09-16T23:04:22.337Z,1.20
2022-09-16T23:06:48.959Z,4.00
2022-09-16T23:09:17.697Z,3.67
2022-09-16T23:11:55.534Z,4.35
2022-09-16T23:14:26.639Z,1.35
2022-09-16T23:16:57.972Z,3.20
2022-09-16T23:19:27.476Z,2.63
2022-09-16T23:21:54.067Z,0.75
2022-09-16T23:24:23.259Z,4.88
2022-09-16T23:26:54.383Z,2.50
2022-09-16T23:29:23.204Z,2.30
2022-09-16T23:31:53.249Z,3.03
2022-09-16T23:34:21.488Z,1.33
2022-09-16T23:36:55.267Z,1.35
2022-09-16T23:39:38.712Z,4.53
2022-09-16T23:42:11.299Z,1.55
2022-09-16T23:44:37.888Z,1.80
2022-09-16T23:47:04.702Z,3.10
2022-09-16T23:49:33.807Z,4.57
2022-09-16T23:52:04.277Z,1.55
2022-09-16T23:54:30.838Z,2.78
2022-09-16T23:57:03.630Z,5.82
2022-09-16T23:59:32.373Z,0.88
